Address 0x33edcbfaf82a0ce0880bc40ccf90aa59a086efb6 12

 
Txn Hash Method
Block
From
To
Value [Txn Fee]
0x2119390aa9e13115e005c5bf398afdb2a1d311e065f1c3331ae73b6ccc8a85e0Multicall268121422022-09-26 13:17:5519 hrs 40 mins ago0x33edcbfaf82a0ce0880bc40ccf90aa59a086efb6OUT Uniswap V3: Router 20 ETH0.00004625
0xeec23359f6bcb541a94a34d868e12df1eb445934f0e5d59aa9ea002a006b9af7Approve268089462022-09-26 13:03:2719 hrs 55 mins ago0x33edcbfaf82a0ce0880bc40ccf90aa59a086efb6OUT0xfea31d704deb0975da8e77bf13e04239e70d7c280 ETH0.00001324
0x070ede907d94deeb64246b53a24a62de85e39827d8fb1f120edfba1dc72d5f83Multicall268088212022-09-26 13:02:4419 hrs 55 mins ago0x33edcbfaf82a0ce0880bc40ccf90aa59a086efb6OUT Uniswap V3: Router 20 ETH0.0000412
0x35db5360a378af8206e8abcaf51902fc75d154304bcff9f35e7f1c88ee9ea4feApprove268087072022-09-26 13:02:1019 hrs 56 mins ago0x33edcbfaf82a0ce0880bc40ccf90aa59a086efb6OUT Livepeer: LPT Token0 ETH0.00001212
0xe0f6621be4c4b499e4c6c9cb9a43291cacd7fa01eee6769f58bbd24fbc3c0d6aSwap Exact Token...268047442022-09-26 12:43:3320 hrs 15 mins ago0x33edcbfaf82a0ce0880bc40ccf90aa59a086efb6OUT SushiSwap: Router0 ETH0.00003505
0xef9b7fa98c1f74992575d90756a1296539a7c17d2bc4905c15838530914973fbSwap Exact Token...268042882022-09-26 12:41:0220 hrs 17 mins ago0x33edcbfaf82a0ce0880bc40ccf90aa59a086efb6OUT SushiSwap: Router0 ETH0.00003908
0xfe6992e686e2773bffc7e6c8d489db7bb55667a37a0ae3a52b2e9e2a682f1f7bApprove268040352022-09-26 12:39:5820 hrs 18 mins ago0x33edcbfaf82a0ce0880bc40ccf90aa59a086efb6OUTDopex: DPX Token0 ETH0.00001277
0x4f91c394fbab50b41bb51846c33424cb55437877daae5064d41f71a3103a7757Swap Exact ETH F...233561512022-09-07 11:09:0019 days 21 hrs ago0x33edcbfaf82a0ce0880bc40ccf90aa59a086efb6OUT SushiSwap: Router0.007 ETH0.0000373
0xdc69f01e9253a45301c28f51523f3dca3fabe678bdf9693ed6aa288662769c26Swap Exact Token...227866112022-09-04 10:57:3522 days 22 hrs ago0x33edcbfaf82a0ce0880bc40ccf90aa59a086efb6OUT SushiSwap: Router0 ETH0.00009364
0xbe9f6601d77bd880e1fd2943e8491ba1f0cf4e0787db550b64d6c6fe6c82f07aApprove227858772022-09-04 10:53:0522 days 22 hrs ago0x33edcbfaf82a0ce0880bc40ccf90aa59a086efb6OUT Fluid Finance SA: FLUID Token0 ETH0.00003413
0xaa8915babf357cbd1a399031ea9c56b58dec83fccbf6fff731bcba996067c3dbSwap Exact Token...227853942022-09-04 10:48:3022 days 22 hrs ago0x33edcbfaf82a0ce0880bc40ccf90aa59a086efb6OUT SushiSwap: Router0 ETH0.00008724
0x38f635296b8568cf29f5988186b769758bffa327cf68825cc5b1ba0365c6344fApprove227853642022-09-04 10:48:1322 days 22 hrs ago0x33edcbfaf82a0ce0880bc40ccf90aa59a086efb6OUT O3 Swap: O3 Token0 ETH0.00003324
0x13375c948c78a1b195d5d9a96556c6460cc8fb8df22e88b4a93276218cbe10a8Multicall209413032022-08-22 8:09:5636 days 48 mins ago0x33edcbfaf82a0ce0880bc40ccf90aa59a086efb6OUT Uniswap V3: Router 20 ETH0.000069449896 ETH
0x775956fd3c3bf879ae04d140837e433508ae825f46add1fa8a0745a6e2593041Multicall209412522022-08-22 8:08:3036 days 50 mins ago0x33edcbfaf82a0ce0880bc40ccf90aa59a086efb6OUT Uniswap V3: Router 20 ETH0.000065307614 ETH
0xc9996fc24634afcd53857e622443b6f59a06e16cfee01f3411d712fa06fe6127Swap Exact Token...202356632022-08-14 13:36:4643 days 19 hrs ago0x33edcbfaf82a0ce0880bc40ccf90aa59a086efb6OUT SushiSwap: Router0 ETH0.000068034329 ETH
0xbd9eb2de87ae06516a24a0afe3427d680b277882a0862e205bcc505bacbbc346Approve202356092022-08-14 13:36:1043 days 19 hrs ago0x33edcbfaf82a0ce0880bc40ccf90aa59a086efb6OUT Radiant: RDNT Token0 ETH0.000054680201 ETH
0x7ea52b9092224bf8a84878b72999149653216cc176cc386719e22a02f0f07a4aMulticall202351452022-08-14 13:30:2043 days 19 hrs ago0x33edcbfaf82a0ce0880bc40ccf90aa59a086efb6OUT Uniswap V3: Router 20 ETH0.000071433556 ETH
0x6d580d81f6758996602be99fa3906925ae40d04847c389c5f771725815130052Approve202351182022-08-14 13:30:2043 days 19 hrs ago0x33edcbfaf82a0ce0880bc40ccf90aa59a086efb6OUTDopex: DPX Token0 ETH0.000054757324 ETH
0x8deaf5cbc69a1114771e02d1bfdcfac116b28096c8a89a3e9a898dac5e542e6bMulticall201602522022-08-13 13:42:3544 days 19 hrs ago0x33edcbfaf82a0ce0880bc40ccf90aa59a086efb6OUT Uniswap V3: Router 20 ETH0.000108029707 ETH
0x85a568948ec0978863bac01ee51a542a8d22b61f00815b2b1c227934eef5f96dSwap Tokens For ...201356502022-08-13 6:51:3445 days 2 hrs ago0x33edcbfaf82a0ce0880bc40ccf90aa59a086efb6OUT SushiSwap: Router0 ETH0.000137614712 ETH
0x7664a8d8e96b65195a948c634ca18d4715487d6b240303fd12c5b1b5714acd9bTransfer198433452022-08-09 18:57:3048 days 14 hrs ago0x33edcbfaf82a0ce0880bc40ccf90aa59a086efb6OUT0xff9d2d8f7cc8980b65dfaea110f266ab3dc6d7280.005913361596926 ETH0.00008263746 ETH
0x8e1a3e8cae9d4b25880ebaab1804b02e6164da7ab4b1f35d21a22c68d6a4925dSwap Exact ETH F...198426612022-08-09 18:47:1348 days 14 hrs ago0x33edcbfaf82a0ce0880bc40ccf90aa59a086efb6OUT SushiSwap: Router0.006 ETH0.000133625156 ETH
0x7eb7903a967a45a862391679bcfa06c4170db9144c40db53bdb4db13e8782f21Transfer198424852022-08-09 18:44:1848 days 14 hrs ago0xff9d2d8f7cc8980b65dfaea110f266ab3dc6d728 IN 0x33edcbfaf82a0ce0880bc40ccf90aa59a086efb60.011834813495131 ETH0.000082906346 ETH
0x02b97f44d7224926baf036cdbab1849ac4c9356eba07878bb08f2e053325ff5eSwap Exact Token...196367422022-08-07 15:04:3650 days 17 hrs ago0x33edcbfaf82a0ce0880bc40ccf90aa59a086efb6OUT SushiSwap: Router0 ETH0.000059150632 ETH
0xb90912593ce2a7edaba3e3d061bb62861da4d5229ea7316727dc2451d295d5c8Swap Exact Token...196361652022-08-07 14:56:0450 days 18 hrs ago0x33edcbfaf82a0ce0880bc40ccf90aa59a086efb6OUT SushiSwap: Router0 ETH0.00005913253 ETH
[ Download CSV Export 
Latest 8 internal transactions
Parent Txn Hash Block From To Value
0xaa8915babf357cbd1a399031ea9c56b58dec83fccbf6fff731bcba996067c3db227853942022-09-04 10:48:3022 days 22 hrs ago SushiSwap: Router0x33edcbfaf82a0ce0880bc40ccf90aa59a086efb60.005147699106038051 ETH
0xc9996fc24634afcd53857e622443b6f59a06e16cfee01f3411d712fa06fe6127202356632022-08-14 13:36:4643 days 19 hrs ago SushiSwap: Router0x33edcbfaf82a0ce0880bc40ccf90aa59a086efb60.002947802423074324 ETH
0x2447dd81ef3ff2d7c52786d12aa8c8b5c47235f6d6bf6ff97fddb7f1a9ac12d8190596882022-07-31 18:36:2857 days 14 hrs ago 0xa906f338cb21815cbc4bc87ace9e68c87ef8d8f10x33edcbfaf82a0ce0880bc40ccf90aa59a086efb60 ETH
0x48ba6b8a156d12593c8cd61b6e448daadaa8f8d9d97a27406f812751687552f4190596692022-07-31 18:36:2857 days 14 hrs ago 0xa906f338cb21815cbc4bc87ace9e68c87ef8d8f10x33edcbfaf82a0ce0880bc40ccf90aa59a086efb60.000070287994493607 ETH
0x77141cbb910a3972e568c3bdd09d858a6b116e1daee1dda793b5250acf93bab2173603702022-07-10 9:19:5278 days 23 hrs ago 0xa906f338cb21815cbc4bc87ace9e68c87ef8d8f10x33edcbfaf82a0ce0880bc40ccf90aa59a086efb60.000000002654860781 ETH
0xce03be451395259782c5b98a51ee1157e37541761408cc45881d3f203c9e2d1e173603192022-07-10 9:18:5478 days 23 hrs ago 0xa906f338cb21815cbc4bc87ace9e68c87ef8d8f10x33edcbfaf82a0ce0880bc40ccf90aa59a086efb60.000035884012882231 ETH
0x3a32b35c32ea5f3907ba13a4395d362314aeb03dbaf8280ae4de173a17a7e38b170355162022-07-05 7:46:4484 days 1 hr ago DODO: Proxy Route0x33edcbfaf82a0ce0880bc40ccf90aa59a086efb60.012353527106191934 ETH
0x4c135ad0e567465f79819ea4dbb9c7cf236e717f07e8ecfc45bd39536174e2fd169670792022-07-04 10:01:3384 days 22 hrs ago 0xa906f338cb21815cbc4bc87ace9e68c87ef8d8f10x33edcbfaf82a0ce0880bc40ccf90aa59a086efb60.004308522963881672 ETH
[ Download CSV Export 
Latest 1 Deposit
[ Download CSV Export 
Loading

Contract Name:
0 ETH

Compiler Version
0

Optimization Enabled:
0 ETH

Other Settings:
-NA-
Block Transaction Gas Used Reward
Age Block Fee Address BC Fee Address Voting Power Jailed Incoming
Block Uncle Number Difficulty Gas Used Reward
Loading
Make sure to use the "Vote Down" button for any spammy posts, and the "Vote Up" for interesting conversations.